Time;durP1;ratioP1;P1;durP2;ratioP2;P2;SDS_P1;SDS_P2;PMS_P1;PMS_P2;Temp;Humidity;BMP_temperature;BMP_pressure;BME280_temperature;BME280_humidity;BME280_pressure;Samples;Min_cycle;Max_cycle;Signal;HPM_P1;HPM_P2
2021/09/05 00:00:31;;;;;;;896.05;835.47;;;;;;;12.92;66.24;93611.38;5091950;28;20059;-45
2021/09/05 00:02:57;;;;;;;927.75;863.38;;;;;;;12.72;66.85;93609.59;5092141;28;20020;-41
2021/09/05 00:05:22;;;;;;;899.63;839.42;;;;;;;12.84;66.52;93616.94;5091344;28;20039;-43
2021/09/05 00:07:48;;;;;;;899.17;836.90;;;;;;;12.72;67.13;93615.13;5092058;28;20081;-43
2021/09/05 00:10:14;;;;;;;912.20;849.78;;;;;;;12.71;67.12;93613.69;5091560;28;20024;-41
2021/09/05 00:12:41;;;;;;;884.17;820.10;;;;;;;12.71;67.47;93616.44;5091798;28;20512;-41
2021/09/05 00:15:08;;;;;;;926.60;861.22;;;;;;;12.62;67.96;93612.22;5092099;28;20508;-42
2021/09/05 00:17:33;;;;;;;919.28;856.00;;;;;;;12.59;68.37;93607.78;5091940;28;20081;-43
2021/09/05 00:19:59;;;;;;;937.95;872.10;;;;;;;12.59;67.66;93609.81;5091477;28;20028;-42
2021/09/05 00:22:24;;;;;;;906.35;844.70;;;;;;;12.64;68.21;93609.63;5091915;28;20024;-43
2021/09/05 00:24:50;;;;;;;923.10;859.80;;;;;;;12.62;68.28;93612.22;5091765;28;20024;-42
2021/09/05 00:27:15;;;;;;;942.40;877.58;;;;;;;12.55;68.61;93609.47;5091662;28;20566;-42
2021/09/05 00:29:40;;;;;;;935.30;870.10;;;;;;;12.53;69.11;93614.81;5091490;28;20107;-42
2021/09/05 00:32:06;;;;;;;952.95;886.70;;;;;;;12.53;68.86;93614.81;5091633;28;20024;-42
2021/09/05 00:34:32;;;;;;;958.42;891.72;;;;;;;12.52;68.54;93618.88;5091242;28;20038;-42
2021/09/05 00:36:57;;;;;;;968.50;901.08;;;;;;;12.38;68.23;93609.31;5091332;28;20024;-43
2021/09/05 00:39:22;;;;;;;936.22;871.88;;;;;;;12.37;68.49;93616.13;5091270;28;20031;-42
2021/09/05 00:41:48;;;;;;;964.88;898.33;;;;;;;12.41;69.08;93619.28;5090859;28;20024;-42
2021/09/05 00:44:13;;;;;;;952.58;886.10;;;;;;;12.24;68.60;93596.97;5091002;28;20078;-42
2021/09/05 00:46:40;;;;;;;949.40;883.10;;;;;;;12.38;68.92;93612.09;5090705;28;20028;-43
2021/09/05 00:49:07;;;;;;;960.58;892.53;;;;;;;12.34;68.80;93614.50;5089684;28;20063;-43
2021/09/05 00:51:37;;;;;;;942.30;875.42;;;;;;;12.33;68.95;93618.56;5070072;28;20024;-42
2021/09/05 00:54:05;;;;;;;956.50;888.58;;;;;;;12.28;68.52;93616.72;5081868;28;20489;-41
2021/09/05 00:56:34;;;;;;;954.42;888.55;;;;;;;12.25;68.38;93615.06;5090740;28;20071;-41
2021/09/05 00:59:03;;;;;;;961.78;895.58;;;;;;;12.23;68.29;93614.88;5091241;28;20588;-41
2021/09/05 01:01:31;;;;;;;918.38;856.22;;;;;;;11.97;68.75;93616.75;5091273;28;20076;-41
2021/09/05 01:03:57;;;;;;;959.85;894.55;;;;;;;12.00;68.65;93610.09;5091032;28;20112;-41
2021/09/05 01:06:22;;;;;;;993.25;924.00;;;;;;;12.08;69.21;93630.19;5089322;28;20126;-42
2021/09/05 01:08:48;;;;;;;980.08;907.47;;;;;;;12.04;70.01;93616.00;5085897;28;20028;-42
2021/09/05 01:11:15;;;;;;;964.33;895.00;;;;;;;12.07;69.39;93623.19;5070811;28;20513;-42
2021/09/05 01:13:41;;;;;;;1005.08;933.30;;;;;;;12.11;69.87;93631.88;5070610;28;20031;-43
2021/09/05 01:16:24;;;;;;;974.92;904.72;;;;;;;12.12;69.10;93633.34;5070322;28;20024;-43
2021/09/05 01:18:49;;;;;;;991.22;920.40;;;;;;;12.06;69.28;93632.78;5070440;28;20029;-43
2021/09/05 01:21:15;;;;;;;983.78;913.60;;;;;;;12.00;69.28;93626.69;5070344;28;20043;-42
2021/09/05 01:23:40;;;;;;;998.03;927.78;;;;;;;12.08;68.63;93632.25;5070240;28;20032;-43
2021/09/05 01:26:06;;;;;;;956.75;890.15;;;;;;;12.08;68.38;93632.97;5070103;28;20029;-42
2021/09/05 01:28:31;;;;;;;978.35;909.55;;;;;;;12.11;68.92;93623.56;5069331;28;20027;-44
2021/09/05 01:30:56;;;;;;;970.63;902.92;;;;;;;12.01;69.31;93622.66;5070584;28;20047;-43
2021/09/05 01:33:22;;;;;;;1020.75;946.63;;;;;;;11.94;69.68;93628.91;5070416;28;20020;-43
2021/09/05 01:35:47;;;;;;;988.83;918.40;;;;;;;11.95;69.39;93630.38;5070508;28;20022;-42
2021/09/05 01:38:13;;;;;;;1006.50;932.67;;;;;;;11.97;69.64;93625.06;5076709;28;20039;-41
2021/09/05 01:40:38;;;;;;;984.65;914.42;;;;;;;11.75;69.93;93598.13;5090041;28;20047;-42
2021/09/05 01:43:04;;;;;;;979.38;910.60;;;;;;;11.81;69.62;93622.81;5090281;28;20024;-42
2021/09/05 01:45:29;;;;;;;982.72;911.00;;;;;;;11.75;69.99;93622.28;5087987;28;20027;-43
2021/09/05 01:47:55;;;;;;;966.58;897.88;;;;;;;11.70;69.86;93615.63;5070328;28;20460;-42
2021/09/05 01:50:20;;;;;;;994.95;922.33;;;;;;;11.69;70.08;93625.22;5070306;28;20040;-43
2021/09/05 01:52:46;;;;;;;998.53;925.80;;;;;;;11.63;70.47;93621.84;5069753;28;20031;-42
2021/09/05 01:55:11;;;;;;;997.65;926.05;;;;;;;11.57;70.29;93632.34;5069783;28;20049;-42
2021/09/05 01:57:36;;;;;;;1014.50;940.70;;;;;;;11.58;70.24;93631.09;5070571;28;20028;-42
2021/09/05 02:00:03;;;;;;;975.92;906.05;;;;;;;11.52;69.84;93624.25;5069953;28;20024;-42
2021/09/05 02:02:28;;;;;;;981.60;910.10;;;;;;;11.53;70.25;93628.47;5073134;28;20402;-42
2021/09/05 02:04:53;;;;;;;986.90;916.22;;;;;;;11.53;70.36;93634.75;5074017;28;20032;-42
2021/09/05 02:07:19;;;;;;;976.92;907.65;;;;;;;11.43;70.10;93631.78;5074025;28;20024;-42
2021/09/05 02:09:44;;;;;;;1021.85;946.63;;;;;;;11.50;69.92;93635.84;5085718;28;20035;-42
2021/09/05 02:12:10;;;;;;;981.63;911.92;;;;;;;11.45;70.29;93631.25;5094118;28;20034;-41
2021/09/05 02:14:35;;;;;;;982.42;914.38;;;;;;;11.39;70.22;93642.47;5094017;28;20032;-42
2021/09/05 02:17:00;;;;;;;994.88;923.83;;;;;;;11.35;70.30;93633.03;5094339;28;20028;-42
2021/09/05 02:19:27;;;;;;;983.08;912.30;;;;;;;11.32;70.37;93642.47;5094388;28;20039;-42
2021/09/05 02:21:52;;;;;;;987.42;916.72;;;;;;;11.28;70.69;93631.75;5094167;28;20097;-42
2021/09/05 02:24:18;;;;;;;956.60;885.65;;;;;;;11.33;70.88;93638.38;5094247;28;20473;-42
2021/09/05 02:26:43;;;;;;;1009.25;934.83;;;;;;;11.37;71.10;93641.53;5093646;28;20621;-42
2021/09/05 02:29:09;;;;;;;960.22;890.13;;;;;;;11.38;71.01;93635.47;5093795;28;20028;-42
2021/09/05 02:31:34;;;;;;;977.20;904.03;;;;;;;11.32;70.61;93628.63;5093687;28;20028;-42
2021/09/05 02:33:59;;;;;;;986.50;914.38;;;;;;;11.26;71.32;93628.06;5093646;28;20078;-43
2021/09/05 02:36:26;;;;;;;988.28;917.42;;;;;;;11.31;70.33;93629.91;5093662;28;20024;-42
2021/09/05 02:38:51;;;;;;;975.28;906.58;;;;;;;11.37;70.30;93625.69;5093589;28;20500;-42
2021/09/05 02:41:17;;;;;;;1001.38;933.00;;;;;;;11.37;69.80;93627.72;5093911;28;20032;-43
2021/09/05 02:43:42;;;;;;;976.85;908.22;;;;;;;11.27;69.64;93638.56;5074455;28;20097;-42
2021/09/05 02:46:08;;;;;;;1011.65;938.85;;;;;;;10.87;69.84;93620.91;5073363;28;20394;-44
2021/09/05 02:48:33;;;;;;;1008.40;937.13;;;;;;;10.93;70.56;93637.34;5073113;28;20024;-44
2021/09/05 02:50:58;;;;;;;984.85;915.33;;;;;;;10.98;71.05;93631.66;5073098;28;20081;-42
2021/09/05 02:53:24;;;;;;;964.97;894.78;;;;;;;11.01;71.42;93633.31;5079018;28;20040;-42
2021/09/05 02:55:49;;;;;;;955.00;888.00;;;;;;;10.99;71.39;93637.91;5093175;28;20440;-41
2021/09/05 02:58:15;;;;;;;988.97;916.55;;;;;;;11.00;71.73;93634.59;5093507;28;20413;-41
2021/09/05 03:00:40;;;;;;;1007.72;935.75;;;;;;;11.01;71.18;93640.88;5093511;28;20489;-42
2021/09/05 03:03:06;;;;;;;986.28;916.70;;;;;;;11.00;71.71;93644.94;5093479;28;20462;-43
2021/09/05 03:05:31;;;;;;;992.67;921.08;;;;;;;11.01;71.91;93638.84;5093047;28;20031;-43
2021/09/05 03:07:57;;;;;;;1012.03;937.92;;;;;;;11.02;71.79;93645.13;5093028;28;20024;-42
2021/09/05 03:10:22;;;;;;;980.15;909.97;;;;;;;11.05;71.71;93638.47;5076125;28;20024;-42
2021/09/05 03:12:47;;;;;;;1003.63;931.10;;;;;;;11.07;71.16;93639.41;5072068;28;20028;-42
2021/09/05 03:15:13;;;;;;;1003.25;932.53;;;;;;;11.12;71.51;93649.56;5072804;28;20024;-42
2021/09/05 03:17:39;;;;;;;978.85;911.13;;;;;;;11.13;71.04;93647.56;5072974;28;20051;-42
2021/09/05 03:20:05;;;;;;;982.95;910.78;;;;;;;11.13;71.71;93658.63;5072445;28;20039;-42
2021/09/05 03:22:30;;;;;;;993.22;921.15;;;;;;;11.13;71.18;93653.09;5072451;28;20035;-42
2021/09/05 03:24:56;;;;;;;1002.70;929.35;;;;;;;11.12;71.07;93659.88;5072756;28;20033;-43
2021/09/05 03:27:21;;;;;;;1018.30;943.72;;;;;;;11.18;70.72;93663.22;5072650;28;20421;-42
2021/09/05 03:29:48;;;;;;;1007.28;935.22;;;;;;;11.15;70.87;93670.56;5072734;28;20074;-42
2021/09/05 03:32:13;;;;;;;1007.13;934.97;;;;;;;11.18;71.78;93665.97;5077241;28;20039;-42
2021/09/05 03:34:39;;;;;;;1000.28;928.08;;;;;;;11.19;71.39;93668.22;5092869;28;20032;-43
2021/09/05 03:37:04;;;;;;;993.08;922.88;;;;;;;11.16;71.29;93679.59;5092824;28;20031;-42
2021/09/05 03:39:30;;;;;;;997.58;925.95;;;;;;;11.09;71.68;93677.53;5077429;28;20020;-43
2021/09/05 03:41:55;;;;;;;1005.38;934.97;;;;;;;11.12;70.61;93676.47;5080395;28;20024;-41
2021/09/05 03:44:21;;;;;;;981.08;909.80;;;;;;;11.09;71.07;93683.81;5092521;28;20404;-42
2021/09/05 03:46:46;;;;;;;1005.28;932.80;;;;;;;10.98;71.42;93672.38;5092389;28;20477;-42
2021/09/05 03:49:11;;;;;;;999.88;929.33;;;;;;;11.05;71.11;93668.88;5092456;28;20024;-45
2021/09/05 03:51:37;;;;;;;989.90;917.55;;;;;;;11.02;71.29;93670.72;5092463;28;20058;-42
2021/09/05 03:54:02;;;;;;;1005.42;930.53;;;;;;;10.95;71.31;93676.22;5091979;28;20016;-43
2021/09/05 03:56:28;;;;;;;948.47;881.05;;;;;;;10.93;72.34;93674.00;5092011;28;20425;-44
2021/09/05 03:58:53;;;;;;;1000.75;927.15;;;;;;;10.89;71.79;93672.88;5092003;28;20043;-45
2021/09/05 04:01:19;;;;;;;1009.08;936.58;;;;;;;10.89;71.64;93675.63;5092148;28;20016;-42
2021/09/05 04:03:44;;;;;;;1022.35;947.33;;;;;;;10.86;71.96;93674.69;5092176;28;20024;-42
2021/09/05 04:06:09;;;;;;;1002.80;931.13;;;;;;;10.85;72.45;93678.00;5091711;28;20031;-42
2021/09/05 04:08:42;;;;;;;997.00;924.72;;;;;;;10.75;72.98;93680.53;5091834;28;20031;-42
2021/09/05 04:11:07;;;;;;;1017.47;941.72;;;;;;;10.91;72.44;93686.88;5091782;28;20099;-42
2021/09/05 04:13:32;;;;;;;1025.70;950.92;;;;;;;10.84;72.99;93693.84;5091999;28;20025;-43
2021/09/05 04:15:58;;;;;;;994.40;920.05;;;;;;;10.94;72.54;93688.53;5091460;28;20024;-43
2021/09/05 04:18:23;;;;;;;1002.63;928.28;;;;;;;10.96;71.47;93688.75;5091421;28;20024;-43
2021/09/05 04:20:49;;;;;;;1008.25;934.08;;;;;;;10.96;71.87;93689.47;5091524;28;20039;-42
2021/09/05 04:23:14;;;;;;;989.15;916.10;;;;;;;10.95;72.12;93687.25;5091870;28;20035;-42
2021/09/05 04:25:40;;;;;;;1034.28;956.67;;;;;;;10.92;72.08;93697.38;5075477;28;20029;-45
2021/09/05 04:28:06;;;;;;;1024.65;949.80;;;;;;;10.95;72.39;93688.00;5091661;28;20140;-43
2021/09/05 04:30:32;;;;;;;1025.15;950.42;;;;;;;10.86;71.99;93665.66;5090555;28;20081;-41
2021/09/05 04:32:57;;;;;;;1016.30;941.13;;;;;;;11.04;71.94;93690.25;5091829;28;20027;-41
2021/09/05 04:35:22;;;;;;;1030.68;952.28;;;;;;;11.11;71.81;93694.34;5091306;28;20165;-43
2021/09/05 04:37:48;;;;;;;1033.95;956.97;;;;;;;11.25;71.66;93695.69;5090223;28;20015;-42
2021/09/05 04:40:13;;;;;;;1035.95;957.83;;;;;;;11.25;70.36;93712.25;5091471;28;20408;-44
2021/09/05 04:42:39;;;;;;;1027.40;953.33;;;;;;;11.28;70.53;93706.38;5091162;28;20489;-43
2021/09/05 04:45:05;;;;;;;1020.03;945.00;;;;;;;11.20;70.45;93707.63;5091454;28;20073;-43
2021/09/05 04:47:30;;;;;;;1005.15;932.13;;;;;;;11.22;70.40;93700.28;5091073;28;20035;-43
2021/09/05 04:49:56;;;;;;;1012.88;939.60;;;;;;;11.23;70.01;93701.00;5091108;28;20020;-44
2021/09/05 04:52:21;;;;;;;998.78;925.80;;;;;;;11.24;71.06;93703.22;5091030;28;20020;-44
2021/09/05 04:54:47;;;;;;;988.28;917.13;;;;;;;11.26;71.15;93700.66;5090744;28;20048;-43
2021/09/05 04:57:12;;;;;;;1007.17;932.95;;;;;;;11.38;71.46;93710.09;5091005;28;20027;-43
2021/09/05 04:59:38;;;;;;;1007.08;934.95;;;;;;;11.47;70.82;93706.09;5090937;28;20027;-43
2021/09/05 05:02:03;;;;;;;996.35;925.55;;;;;;;11.61;70.65;93703.91;5091071;28;20039;-43
2021/09/05 05:04:29;;;;;;;1017.90;942.78;;;;;;;11.63;71.56;93704.09;5091246;28;20504;-43
2021/09/05 05:06:54;;;;;;;995.92;923.63;;;;;;;11.60;71.17;93703.16;5090726;28;20025;-45
2021/09/05 05:09:20;;;;;;;998.40;924.10;;;;;;;11.83;71.29;93706.00;5090683;28;20028;-44
2021/09/05 05:11:45;;;;;;;1009.15;936.55;;;;;;;11.95;71.15;93696.78;5090689;28;20039;-45
2021/09/05 05:14:11;;;;;;;1021.53;945.10;;;;;;;12.09;70.88;93695.34;5085434;28;20036;-43
2021/09/05 05:16:37;;;;;;;1031.68;955.22;;;;;;;12.18;69.84;93700.34;5070412;28;20409;-44
2021/09/05 05:19:02;;;;;;;1014.42;937.85;;;;;;;12.31;69.66;93702.16;5070339;28;20078;-44
2021/09/05 05:21:28;;;;;;;1029.63;952.85;;;;;;;12.40;70.34;93706.41;5070672;28;20036;-44
2021/09/05 05:23:54;;;;;;;1043.25;966.05;;;;;;;12.53;70.30;93703.44;5069022;28;20449;-46
2021/09/05 05:26:20;;;;;;;1041.45;962.72;;;;;;;12.65;70.18;93701.75;5070236;28;20029;-44
2021/09/05 05:28:46;;;;;;;1045.85;968.38;;;;;;;12.84;70.03;93697.31;5070563;28;20031;-40
2021/09/05 05:31:11;;;;;;;1026.38;950.58;;;;;;;13.02;70.37;93695.41;5070091;28;20037;-42
2021/09/05 05:33:37;;;;;;;1031.90;955.72;;;;;;;13.12;69.08;93685.25;5070412;28;20033;-42
2021/09/05 05:36:02;;;;;;;1009.03;933.70;;;;;;;13.46;69.02;93704.16;5069604;28;20017;-44
2021/09/05 05:38:28;;;;;;;996.92;924.35;;;;;;;13.69;67.91;93710.31;5070135;28;20039;-45
2021/09/05 05:40:53;;;;;;;1020.47;946.78;;;;;;;13.93;66.50;93717.22;5072633;28;20036;-44
2021/09/05 05:43:19;;;;;;;969.00;900.03;;;;;;;14.16;66.33;93713.00;5090318;28;20051;-45
2021/09/05 05:45:45;;;;;;;997.65;927.60;;;;;;;14.40;66.13;93703.97;5089203;28;20036;-45
2021/09/05 05:48:11;;;;;;;965.13;898.03;;;;;;;14.63;65.74;93712.13;5090371;28;20035;-43
2021/09/05 05:50:37;;;;;;;987.50;918.70;;;;;;;14.79;64.45;93705.09;5090036;28;20024;-46
2021/09/05 05:53:02;;;;;;;953.28;887.15;;;;;;;14.90;65.01;93707.41;5089704;28;20031;-42
2021/09/05 05:55:28;;;;;;;961.65;894.20;;;;;;;14.99;64.78;93697.69;5090023;28;20051;-45
2021/09/05 05:57:55;;;;;;;934.95;869.20;;;;;;;15.11;64.05;93704.25;5089873;28;20150;-43
2021/09/05 06:00:25;;;;;;;973.88;904.55;;;;;;;15.17;64.02;93697.13;5090426;28;20028;-43
2021/09/05 06:02:51;;;;;;;922.03;854.08;;;;;;;15.28;62.63;93697.94;5089744;28;20055;-43
2021/09/05 06:05:16;;;;;;;944.47;876.25;;;;;;;15.37;62.10;93695.25;5090283;28;20051;-44
2021/09/05 06:07:42;;;;;;;924.20;856.67;;;;;;;15.52;62.43;93703.44;5090399;28;20488;-45
2021/09/05 06:10:08;;;;;;;934.58;867.28;;;;;;;15.67;63.34;93702.50;5074956;28;20021;-43
2021/09/05 06:12:33;;;;;;;953.83;878.42;;;;;;;15.85;62.11;93710.22;5069987;28;20020;-45
2021/09/05 06:14:59;;;;;;;964.42;889.15;;;;;;;16.01;61.73;93696.84;5069864;28;20028;-43
2021/09/05 06:17:24;;;;;;;978.42;899.60;;;;;;;16.06;62.45;93706.97;5069724;28;20036;-44
2021/09/05 06:19:50;;;;;;;945.90;871.17;;;;;;;16.13;62.42;93708.19;5070108;28;20024;-45
2021/09/05 06:22:15;;;;;;;979.03;899.80;;;;;;;16.13;62.08;93708.19;5069642;28;20020;-45
2021/09/05 06:24:41;;;;;;;978.75;898.38;;;;;;;16.16;60.53;93707.00;5069642;28;20078;-47
2021/09/05 06:27:06;;;;;;;978.25;901.50;;;;;;;16.19;61.26;93720.53;5074833;28;20020;-47
2021/09/05 06:29:33;;;;;;;1025.50;933.80;;;;;;;16.09;61.97;93721.81;5089954;28;20099;-45
2021/09/05 06:31:58;;;;;;;967.47;889.15;;;;;;;16.05;60.36;93702.72;5089993;28;20028;-47
2021/09/05 06:34:24;;;;;;;973.97;896.63;;;;;;;16.19;61.48;93717.75;5089972;28;20415;-46
2021/09/05 06:36:49;;;;;;;977.25;897.33;;;;;;;16.33;61.34;93718.81;5089979;28;20465;-46
2021/09/05 06:39:14;;;;;;;978.40;901.40;;;;;;;16.47;59.15;93714.34;5086233;28;20412;-44
2021/09/05 06:41:40;;;;;;;950.70;878.78;;;;;;;16.68;57.75;93714.59;5089572;28;20077;-47
2021/09/05 06:44:05;;;;;;;961.78;884.28;;;;;;;16.89;58.58;93716.13;5089635;28;20016;-45
2021/09/05 06:46:31;;;;;;;952.63;877.05;;;;;;;17.23;57.60;93718.66;5089651;28;20024;-45
2021/09/05 06:48:56;;;;;;;897.75;826.90;;;;;;;17.58;55.96;93722.69;5092002;28;20024;-45
2021/09/05 06:51:22;;;;;;;888.97;816.20;;;;;;;18.07;54.28;93721.28;5093453;28;20020;-44
2021/09/05 06:53:47;;;;;;;933.75;848.92;;;;;;;18.93;53.28;93726.56;5093353;28;20023;-44
2021/09/05 06:56:13;;;;;;;1016.00;917.67;;;;;;;20.32;50.99;93727.28;5092768;28;20037;-44
2021/09/05 06:58:38;;;;;;;1074.28;958.63;;;;;;;21.62;45.22;93722.47;5070870;28;20040;-46
2021/09/05 07:01:04;;;;;;;1278.25;993.00;;;;;;;22.17;44.65;93731.97;5071177;28;20040;-44
2021/09/05 07:03:29;;;;;;;1357.80;999.90;;;;;;;22.26;44.36;93733.88;5070959;28;20062;-44
2021/09/05 07:05:55;;;;;;;1453.50;999.90;;;;;;;21.97;45.62;93728.00;5070616;28;20390;-43
2021/09/05 07:08:21;;;;;;;1511.63;999.90;;;;;;;21.75;45.67;93733.06;5070684;28;20516;-43
2021/09/05 07:10:47;;;;;;;1486.00;999.90;;;;;;;21.63;46.45;93735.19;5089665;28;20042;-42
2021/09/05 07:13:12;;;;;;;1471.82;999.90;;;;;;;21.53;46.61;93735.34;5090911;28;20020;-42
2021/09/05 07:15:38;;;;;;;1491.18;999.90;;;;;;;21.51;46.74;93740.09;5090744;28;20024;-42
2021/09/05 07:18:03;;;;;;;1480.10;999.90;;;;;;;21.64;46.08;93734.56;5090581;28;20099;-42
2021/09/05 07:20:29;;;;;;;1476.15;999.90;;;;;;;22.42;45.95;93741.09;5090233;28;20085;-46
2021/09/05 07:22:55;;;;;;;1371.25;999.90;;;;;;;23.43;42.54;93743.72;5089101;28;20067;-45
2021/09/05 07:25:21;;;;;;;1205.72;999.90;;;;;;;23.75;41.35;93742.53;5070251;28;20032;-45
2021/09/05 07:27:48;;;;;;;1194.68;999.90;;;;;;;23.53;41.69;93737.84;5069774;28;20130;-46
2021/09/05 07:30:15;;;;;;;1247.25;999.90;;;;;;;23.34;42.13;93739.00;5070683;28;20028;-44
2021/09/05 07:32:41;;;;;;;1220.38;999.90;;;;;;;23.09;42.86;93725.72;5070670;28;20032;-45
2021/09/05 07:35:07;;;;;;;1260.65;999.90;;;;;;;23.08;42.84;93746.81;5070727;28;20033;-46
2021/09/05 07:37:32;;;;;;;1244.78;999.90;;;;;;;23.04;42.43;93740.94;5070722;28;20024;-44
2021/09/05 07:39:58;;;;;;;1201.25;999.90;;;;;;;22.63;42.79;93745.78;5071498;28;20493;-45
2021/09/05 07:42:24;;;;;;;1219.40;999.90;;;;;;;22.46;43.72;93749.03;5072222;28;20032;-45
2021/09/05 07:44:49;;;;;;;1171.05;999.90;;;;;;;22.22;42.62;93744.91;5072476;28;20495;-44
2021/09/05 07:47:15;;;;;;;1125.78;998.90;;;;;;;21.69;42.73;93743.97;5072098;28;20412;-44
2021/09/05 07:49:40;;;;;;;1140.55;999.90;;;;;;;22.14;43.86;93742.34;5072318;28;20028;-43
2021/09/05 07:52:06;;;;;;;1164.72;999.90;;;;;;;23.18;41.80;93740.94;5091589;28;20037;-39
2021/09/05 07:54:31;;;;;;;1123.28;999.90;;;;;;;24.70;35.67;93713.22;5091001;28;20027;-41
2021/09/05 07:56:57;;;;;;;1097.82;999.63;;;;;;;27.09;32.48;93738.84;5092416;28;20016;-41
2021/09/05 07:59:22;;;;;;;1103.45;999.90;;;;;;;29.21;28.17;93748.19;5092038;28;20032;-41
2021/09/05 08:01:48;;;;;;;1072.90;982.50;;;;;;;30.72;25.41;93745.81;5090905;28;20027;-41
2021/09/05 08:04:13;;;;;;;1071.22;984.42;;;;;;;31.82;24.11;93738.97;5090532;28;20201;-41
2021/09/05 08:06:39;;;;;;;1063.90;974.10;;;;;;;31.73;25.09;93745.91;5090318;28;20039;-41
2021/09/05 08:09:04;;;;;;;1050.05;968.85;;;;;;;31.90;22.61;93738.41;5090095;28;20028;-41
2021/09/05 08:11:29;;;;;;;1060.45;975.78;;;;;;;31.99;23.70;93740.00;5090102;28;20416;-41
2021/09/05 08:13:55;;;;;;;1062.45;976.22;;;;;;;31.52;23.99;93743.34;5089785;28;20071;-41
2021/09/05 08:16:20;;;;;;;1069.90;982.10;;;;;;;31.01;24.49;93753.66;5090873;28;20081;-41
2021/09/05 08:18:46;;;;;;;1092.40;996.75;;;;;;;30.33;25.56;93761.25;5092014;28;20507;-41
2021/09/05 08:21:11;;;;;;;1108.10;999.90;;;;;;;29.37;27.40;93747.22;5072902;28;20425;-41
2021/09/05 08:23:38;;;;;;;1124.95;999.90;;;;;;;28.58;28.52;93749.75;5078532;28;20024;-41
2021/09/05 08:26:05;;;;;;;1108.03;999.90;;;;;;;27.93;29.43;93750.41;5091094;28;20028;-40
2021/09/05 08:28:31;;;;;;;1118.68;999.90;;;;;;;27.35;29.81;93742.66;5078657;28;20031;-41
2021/09/05 08:30:57;;;;;;;1126.22;999.90;;;;;;;26.81;31.31;93756.22;5072974;28;20028;-40
2021/09/05 08:33:22;;;;;;;1118.65;999.90;;;;;;;26.39;31.29;93740.38;5089329;28;20510;-41
2021/09/05 08:35:48;;;;;;;1122.18;999.90;;;;;;;25.50;32.61;93730.25;5089242;28;20024;-40
2021/09/05 08:38:14;;;;;;;1137.22;999.90;;;;;;;25.07;34.58;93752.34;5069215;28;20039;-40
2021/09/05 08:40:47;;;;;;;1119.07;999.90;;;;;;;24.68;34.65;93744.19;5088067;28;20035;-40
2021/09/05 08:43:13;;;;;;;1111.35;999.90;;;;;;;24.52;34.05;93741.34;5088116;28;20585;-41
2021/09/05 08:45:39;;;;;;;1151.57;999.90;;;;;;;24.46;36.06;93745.97;5089129;28;20058;-40
2021/09/05 08:48:06;;;;;;;1085.47;986.25;;;;;;;24.27;33.72;93752.84;5089101;28;20030;-40
2021/09/05 08:50:32;;;;;;;1088.50;991.08;;;;;;;24.14;33.64;93747.97;5089137;28;20089;-40
2021/09/05 08:52:58;;;;;;;1070.63;974.22;;;;;;;24.12;34.14;93738.69;5083757;28;20043;-40
2021/09/05 08:55:24;;;;;;;1079.75;983.42;;;;;;;24.50;34.20;93743.31;5088338;28;20047;-41
2021/09/05 08:57:49;;;;;;;1095.20;996.65;;;;;;;24.80;33.48;93745.50;5088811;28;20035;-41
2021/09/05 09:00:15;;;;;;;1106.13;998.45;;;;;;;25.10;35.50;93745.44;5087792;28;20032;-41
2021/09/05 09:02:44;;;;;;;1103.88;998.25;;;;;;;25.56;32.33;93748.22;5088621;28;20032;-40
2021/09/05 09:05:11;;;;;;;1118.65;999.90;;;;;;;26.06;31.44;93743.97;5088291;28;20107;-40
2021/09/05 09:07:44;;;;;;;1050.63;959.42;;;;;;;26.49;29.23;93743.59;5088738;28;20070;-40
2021/09/05 09:10:09;;;;;;;1105.25;999.90;;;;;;;26.12;31.02;93740.66;5088656;28;20039;-41
2021/09/05 09:12:38;;;;;;;1087.82;992.75;;;;;;;27.15;29.68;93742.63;5088427;28;20106;-40
2021/09/05 09:15:19;;;;;;;1060.95;971.88;;;;;;;29.20;26.05;93737.47;5088543;28;20036;-41
2021/09/05 09:17:49;;;;;;;972.95;900.72;;;;;;;31.44;23.09;93729.66;5087134;28;20146;-41
2021/09/05 09:20:30;;;;;;;879.72;821.83;;;;;;;32.62;19.91;93728.28;5088410;28;20039;-39
2021/09/05 09:23:11;;;;;;;886.53;826.75;;;;;;;33.77;19.36;93727.06;5087955;28;20031;-41
2021/09/05 09:25:37;;;;;;;864.15;806.53;;;;;;;34.68;18.02;93725.13;5071919;28;20012;-39
2021/09/05 09:28:21;;;;;;;830.75;776.30;;;;;;;35.95;16.66;93715.16;5088450;28;20032;-39
2021/09/05 09:30:47;;;;;;;814.28;760.17;;;;;;;35.63;15.89;93718.59;5088341;28;20118;-41
2021/09/05 09:33:19;;;;;;;859.80;799.50;;;;;;;35.50;16.95;93717.09;5087325;28;20024;-44
2021/09/05 09:35:53;;;;;;;834.95;779.35;;;;;;;34.93;17.03;93723.88;5088478;28;20088;-42
2021/09/05 09:38:19;;;;;;;854.45;798.00;;;;;;;34.45;17.73;93721.34;5088682;28;20065;-41
2021/09/05 09:40:47;;;;;;;818.08;764.28;;;;;;;34.68;16.82;93713.66;5088238;28;20116;-42
2021/09/05 09:43:22;;;;;;;790.40;738.10;;;;;;;35.48;16.39;93714.22;5088336;28;20047;-41
2021/09/05 09:45:49;;;;;;;810.50;756.92;;;;;;;35.71;16.81;93704.25;5088248;28;20099;-41
2021/09/05 09:48:26;;;;;;;823.95;771.33;;;;;;;34.31;16.65;93713.31;5087901;28;20043;-43
2021/09/05 09:50:59;;;;;;;811.00;758.08;;;;;;;32.66;18.73;93716.91;5087887;28;20028;-41
2021/09/05 09:53:25;;;;;;;848.47;791.58;;;;;;;31.11;20.71;93718.91;5087406;28;20054;-41
2021/09/05 09:55:51;;;;;;;823.50;769.67;;;;;;;30.18;21.87;93718.81;5103545;28;20040;-41
2021/09/05 09:58:16;;;;;;;836.85;779.90;;;;;;;29.50;23.08;93721.25;5103658;28;20023;-41
2021/09/05 10:00:42;;;;;;;835.90;780.28;;;;;;;28.89;24.44;93713.06;5088238;28;20028;-41
2021/09/05 10:03:09;;;;;;;780.22;729.00;;;;;;;29.17;24.58;93727.44;5087471;28;20027;-40
2021/09/05 10:05:34;;;;;;;659.03;617.03;;;;;;;30.02;22.92;93724.81;5086772;28;20047;-41
2021/09/05 10:08:01;;;;;;;657.42;616.80;;;;;;;30.23;21.29;93723.97;5087717;28;20028;-41
2021/09/05 10:10:26;;;;;;;732.50;685.83;;;;;;;30.30;21.84;93722.69;5082287;28;20024;-41
2021/09/05 10:12:54;;;;;;;699.47;655.63;;;;;;;31.19;21.52;93721.94;5086437;28;20595;-41
2021/09/05 10:15:20;;;;;;;688.08;645.10;;;;;;;31.85;20.27;93711.91;5084926;28;20031;-41
2021/09/05 10:17:46;;;;;;;697.58;654.00;;;;;;;32.52;19.53;93701.66;5070140;28;20055;-41
2021/09/05 10:20:11;;;;;;;733.75;687.15;;;;;;;32.11;20.31;93717.41;5086732;28;20729;-41
2021/09/05 10:22:38;;;;;;;749.97;702.72;;;;;;;31.40;20.07;93721.72;5088510;28;20028;-41
2021/09/05 10:25:04;;;;;;;814.80;759.67;;;;;;;30.06;22.14;93719.22;5091823;28;20020;-41
2021/09/05 10:27:34;;;;;;;828.75;773.03;;;;;;;29.51;24.06;93719.88;5092009;28;20543;-41
2021/09/05 10:30:09;;;;;;;802.28;748.97;;;;;;;29.26;23.80;93720.56;5091955;28;20663;-41
2021/09/05 10:32:52;;;;;;;788.10;735.67;;;;;;;29.31;24.79;93735.63;5085718;28;20032;-41
2021/09/05 10:35:45;;;;;;;747.65;699.78;;;;;;;29.15;24.76;93730.22;5073756;28;20017;-41
2021/09/05 10:38:22;;;;;;;736.53;687.88;;;;;;;29.75;25.65;93720.56;5073609;28;20048;-41
2021/09/05 10:40:53;;;;;;;704.15;659.55;;;;;;;29.83;24.05;93717.94;5073647;28;20020;-41
2021/09/05 10:43:20;;;;;;;657.72;617.65;;;;;;;30.28;22.40;93716.22;5073503;28;20035;-41
2021/09/05 10:45:48;;;;;;;733.40;686.83;;;;;;;31.21;23.45;93719.84;5073191;28;20488;-41
2021/09/05 10:48:34;;;;;;;682.73;639.03;;;;;;;32.54;20.51;93722.44;5073556;28;20032;-41
2021/09/05 10:51:13;;;;;;;634.58;594.97;;;;;;;33.87;17.78;93718.59;5073340;28;20111;-44
2021/09/05 10:54:10;;;;;;;;;;;;;;;34.18;18.00;93725.38;5081528;28;20032;-41
2021/09/05 10:56:40;;;;;;;654.97;614.83;;;;;;;34.37;17.37;93714.81;5080878;28;20003;-39